Skip to Main Content
SEARCH:
Location Air RH Dwp Precip Type Wind Speed Wind Gust Direction Pavement Temperature Date/Time
Hatem Bridge US 40 E/B 36 39 13 None 10 mph 16 mph NW 38 - 38 12/10/2016 3:11:00 PM
I-270 at I-370 33 41 12 None Calm 6 mph NW 38 - 46 12/10/2016 3:05:00 PM
I-270 at MD-109 33 42 12 None 10 mph 18 mph W 37 - 42 12/10/2016 3:10:00 PM
I-495 at American Legion Bridge 34 40 12 None 6 mph 15 mph NW 44 - 44 12/10/2016 3:10:00 PM
I-68 at MD-219 16 90 14 None 11 mph 16 mph W 21 - 27 12/10/2016 3:10:00 PM
I-68 at Savage Mt 18 80 13 None 4 mph 13 mph W 26 - 27 12/10/2016 3:05:00 PM
I-68 at Sideling Hill 27 56 13 None Calm 7 mph NE 38 - 39 12/10/2016 3:10:00 PM
I-68 at WV Line 20 73 13 None 6 mph 13 mph W 25 - 28 12/10/2016 3:10:00 PM
I-695 at I-83 34 41 13 None 4 mph 15 mph NW 38 - 45 12/10/2016 3:05:00 PM
I-70 at Fred-Wash Co. 28 50 12 None 5 mph 15 mph NW 33 - 33 12/10/2016 3:10:00 PM
I-70 at I-695 33 42 13 None 5 mph 11 mph W 39 - 43 12/10/2016 3:10:00 PM
I-70 at I-81 31 42 11 None 10 mph 16 mph NW 42 - 42 12/10/2016 3:10:00 PM
I-70 at MD-27 31 45 13 None 4 mph 11 mph W 40 - 43 12/10/2016 3:10:00 PM
I-70 at MD-32 32 42 12 None 8 mph 15 mph NW 40 - 46 12/10/2016 3:05:00 PM
I-83 at MD-137 32 43 12 None 7 mph 14 mph S 43 - 43 12/10/2016 3:10:00 PM
I-895 at I-95 - - - No Data Available - - No Data Available -
I-95 at I-695 NE - - - No Data Available - - No Data Available -
I-95 at Patuxent River 34 40 13 None 4 mph 13 mph N 43 - 45 12/10/2016 3:10:00 PM
I-95 at Tydings Bridge 38 38 14 None 5 mph 14 mph SW 41 - 45 12/10/2016 3:10:00 PM
I-95/495 at I-295 37 39 15 None 7 mph 16 mph NW 49 - 79 12/10/2016 3:10:00 PM
I-97 at MD-100 35 39 12 None 12 mph 19 mph NW 40 - 44 12/10/2016 3:10:00 PM
I-97 at MD-32 35 39 13 None 11 mph 17 mph NW 41 - 46 12/10/2016 3:10:00 PM
MD 20 at MD 21 36 41 14 None 9 mph 15 mph NW 51 - 51 12/10/2016 3:10:00 PM
MD 231 at Patuxent River 37 39 14 None 7 mph 15 mph NW 42 - 47 12/10/2016 3:10:00 PM
MD 260 at Cox Rd 38 38 15 None Calm 6 mph W 50 - 50 12/10/2016 3:10:00 PM
MD-135 at Salt Dome 17 88 14 None Calm 13 mph NW 29 - 29 12/10/2016 3:10:00 PM
MD-140 at MD-97 31 46 13 None 9 mph 15 mph W 38 - 38 12/10/2016 3:10:00 PM
MD-200 EB at Bonifant Rd 32 43 12 None 9 mph 15 mph NW 32 - 33 12/10/2016 3:10:00 PM
MD-200 WB at Muncaster Mill Rd 33 41 12 None 4 mph 10 mph W 40 - 40 12/10/2016 3:10:00 PM
MD-213 at Sassafras River 36 50 19 None 9 mph 15 mph W 45 - 45 12/10/2016 3:10:00 PM
MD-24 at Rock St Park 33 49 16 None Calm 7 mph SW 33 - 33 12/10/2016 3:10:00 PM
MD-30 at PA Line 29 50 13 None 9 mph 16 mph W 38 - 38 12/10/2016 3:10:00 PM
MD-301 at MD-305 35 47 17 None 8 mph 12 mph NW 49 - 49 12/10/2016 3:10:00 PM
MD-33 at Knapps Narrows Drawbridge 36 45 17 None 12 mph 21 mph W 55 - 55 12/10/2016 3:10:00 PM
MD-344 at MD-224 36 41 15 None 5 mph 10 mph W 39 - 39 12/10/2016 3:10:00 PM
MD-4 at Patuxent River 39 40 17 None - - No Data Available 43 - 49 12/10/2016 3:10:00 PM
MD-404 at Choptank River 37 44 17 None 7 mph 18 mph NW 46 - 50 12/10/2016 3:10:00 PM
MD-43 at MD-150 36 40 14 None 7 mph 16 mph W 45 - 49 12/10/2016 3:10:00 PM
MD-51 at Oldtown Salt Dome 29 49 12 None 5 mph 16 mph W 41 - 41 12/10/2016 3:10:00 PM
MD-64 at MD-418 30 49 13 None 12 mph 19 mph NW 39 - 40 12/10/2016 3:10:00 PM
US-1 at Baltimore / Harford Co. Line 34 40 13 None 5 mph 14 mph N 37 - 37 12/10/2016 3:10:00 PM
US-1 at Conowingo Dam 37 40 15 None 5 mph 12 mph NW 49 - 49 12/10/2016 3:10:00 PM
US-13 at US-113 36 47 18 None 6 mph 14 mph NW 52 - 52 12/10/2016 3:10:00 PM
US-13 at US-50 - - - No Data Available - - No Data Available -
US-15 at MD-140 33 41 12 None 6 mph 14 mph W 38 - 45 12/10/2016 3:10:00 PM
US-301 at MD-5 35 41 14 None 4 mph 14 mph NW 45 - 49 12/10/2016 3:10:00 PM
US-301 at Potomac 38 44 18 None 7 mph 11 mph NW 46 - 48 12/10/2016 3:10:00 PM
US-301 on HWN Bridge 36 36 12 None 12 mph 15 mph NW 40 - 40 12/10/2016 3:12:00 PM
US-340 at MD-180 31 45 12 None 13 mph 22 mph NW 39 - 45 12/10/2016 3:10:00 PM
US-50 at Choptank 36 48 18 None 15 mph 22 mph NW 42 - 46 12/10/2016 3:10:00 PM
US-50 at I-95 - - - No Data Available - - No Data Available -
US-50 at MD-2 34 40 13 None 10 mph 19 mph W 38 - 38 12/10/2016 3:10:00 PM
US-50 at MD-331 37 42 17 None 8 mph 12 mph NW 45 - 50 12/10/2016 3:10:00 PM
US-50 at OC Drawbridge 37 42 16 None 12 mph 17 mph W 47 - 47 12/10/2016 3:10:00 PM
US-50 at Table Rock Rd 16 89 13 None 5 mph 10 mph NW 29 - 29 12/10/2016 3:10:00 PM
US-50 Kent Narrow Bridge 36 41 15 None 12 mph 21 mph NW 44 - 47 12/10/2016 3:10:00 PM
WPL Pier 31 33 38 11 None 24 mph 23 mph NW 32 - 32 12/10/2016 3:10:00 PM
Location Air RH Dwp Precip Type Wind Speed Wind Gust Direction Pavement Temperature Date/Time